»·PEaware :: N35CF KOTH-KRDD

N35CF :: KOTH-KRDD

FLIGHT INFORMATION

Flight Status: Arrived
Operator: Privately registered:
United States
More flights under this callsign
Pilot: Anonymous 18613 (18613)
Aircraft: BEECH AIRCRAFT A90-E90 KING AIR
(BE9L)
More flights by this aircraft type
Origin: KOTH North Bend Mun
United States
Destination: KRDD Redding Mun
United States
More flights between these airports :: More routes between these airports
Route: OTH6 DEROY V287 OED V23 FOLDS
File this flight plan on PilotEdge
Remarks:
Altitude:
(Current/Filed)
19,000ft
Speed:
(Current/Filed)
185kts
Departed: 06-Jun-18 06:20 PM
Arrived: 06-Jun-18 07:29 PM
Distance/Time
Traveled:
195nm/1:09
Distance/Time
To Go:
Arrived

Flight Plot

Page will automatically refresh every two minutes.

Flight plan parsing failed; only flown route is shown


Map Options




Map Legend


Flown Route
Filed Route
Departure Airport
Arrival Airport
Navaid (VOR, NDB)
Fix

Horizontal Profiles

Position Reports

Time Latitude Longitude Heading Altitude Ground
Speed
06-Jun-18 17:31 43.416630 -124.249207 211 20ft 0kts
06-Jun-18 17:32 43.416630 -124.249207 211 20ft 0kts
06-Jun-18 17:33 43.416630 -124.249207 211 20ft 0kts
06-Jun-18 17:34 43.416630 -124.249207 211 20ft 0kts
06-Jun-18 17:35 43.416630 -124.249207 211 20ft 0kts
06-Jun-18 17:36 43.416630 -124.249207 211 20ft 0kts
06-Jun-18 17:37 43.416630 -124.249207 211 20ft 0kts
06-Jun-18 17:38 43.416630 -124.249207 211 20ft 0kts
06-Jun-18 17:39 43.416630 -124.249207 211 20ft 0kts
06-Jun-18 17:40 43.416630 -124.249207 211 20ft 0kts
06-Jun-18 17:41 43.416630 -124.249207 211 20ft 0kts
06-Jun-18 17:42 43.416630 -124.249207 211 20ft 0kts
06-Jun-18 17:43 43.416630 -124.249207 211 20ft 0kts
06-Jun-18 17:44 43.416630 -124.249207 211 20ft 0kts
06-Jun-18 17:45 43.416630 -124.249207 211 20ft 0kts
06-Jun-18 17:46 43.416630 -124.249207 211 20ft 0kts
06-Jun-18 17:47 43.416630 -124.249207 211 20ft 0kts
06-Jun-18 17:48 43.416630 -124.249207 211 20ft 0kts
06-Jun-18 17:49 43.416630 -124.249207 211 20ft 0kts
06-Jun-18 17:50 43.416630 -124.249207 211 20ft 0kts
06-Jun-18 17:51 43.416630 -124.249207 211 20ft 0kts
06-Jun-18 17:52 43.416630 -124.249207 211 20ft 0kts
06-Jun-18 17:53 43.416630 -124.249207 211 20ft 0kts
06-Jun-18 17:54 43.416630 -124.249207 211 20ft 0kts
06-Jun-18 17:55 43.416630 -124.249207 211 20ft 0kts
06-Jun-18 17:56 43.416630 -124.249207 211 20ft 0kts
06-Jun-18 17:57 43.416630 -124.249207 211 20ft 0kts
06-Jun-18 17:58 43.416630 -124.249207 211 20ft 0kts
06-Jun-18 17:59 43.416630 -124.249207 211 20ft 0kts
06-Jun-18 18:00 43.416630 -124.249207 211 20ft 0kts
06-Jun-18 18:01 43.416630 -124.249207 211 20ft 0kts
06-Jun-18 18:02 43.416630 -124.249207 211 20ft 0kts
06-Jun-18 18:03 43.416630 -124.249207 211 20ft 0kts
06-Jun-18 18:04 43.416630 -124.249207 211 20ft 0kts
06-Jun-18 18:05 43.416630 -124.249207 211 20ft 0kts
06-Jun-18 18:06 43.416630 -124.249207 211 20ft 0kts
06-Jun-18 18:07 43.416630 -124.249207 211 20ft 0kts
06-Jun-18 18:08 43.416630 -124.249207 211 20ft 0kts
06-Jun-18 18:09 43.416630 -124.249207 211 20ft 0kts
06-Jun-18 18:10 43.416630 -124.249207 211 20ft 0kts
06-Jun-18 18:11 43.416630 -124.249207 211 20ft 0kts
06-Jun-18 18:12 43.416630 -124.249207 211 20ft 0kts
06-Jun-18 18:13 43.416713 -124.249262 346 20ft 6kts
06-Jun-18 18:14 43.417331 -124.249319 349 20ft 0kts
06-Jun-18 18:15 43.417914 -124.249541 21 20ft 15kts
06-Jun-18 18:16 43.415715 -124.244374 150 20ft 25kts
06-Jun-18 18:17 43.409549 -124.239413 149 20ft 24kts
06-Jun-18 18:18 43.408963 -124.238649 67 20ft 1kts
06-Jun-18 18:19 43.409400 -124.237884 331 20ft 0kts
06-Jun-18 18:20 43.430651 -124.258196 320 1113ft 123kts
06-Jun-18 18:21 43.454212 -124.288105 35 2735ft 146kts
06-Jun-18 18:22 43.440180 -124.232751 117 4212ft 181kts
06-Jun-18 18:23 43.415718 -124.174204 122 6105ft 175kts
06-Jun-18 18:24 43.384206 -124.125523 135 7898ft 171kts
06-Jun-18 18:25 43.355671 -124.075287 135 9598ft 166kts
06-Jun-18 18:26 43.324837 -124.029988 138 11237ft 160kts
06-Jun-18 18:27 43.293527 -123.988109 141 12733ft 158kts
06-Jun-18 18:28 43.261328 -123.946984 141 14001ft 161kts
06-Jun-18 18:29 43.228909 -123.904873 141 15248ft 161kts
06-Jun-18 18:30 43.196979 -123.862660 141 16422ft 160kts
06-Jun-18 18:31 43.165255 -123.820022 141 17529ft 160kts
06-Jun-18 18:32 43.128658 -123.770023 141 18725ft 160kts
06-Jun-18 18:33 43.100174 -123.731391 141 18913ft 191kts
06-Jun-18 18:34 43.059801 -123.677571 139 18888ft 211kts
06-Jun-18 18:35 43.015460 -123.623755 142 18880ft 215kts
06-Jun-18 18:36 42.971316 -123.567885 142 18879ft 216kts
06-Jun-18 18:37 42.927597 -123.512393 138 18879ft 216kts
06-Jun-18 18:38 42.885687 -123.455981 139 18882ft 215kts
06-Jun-18 18:39 42.842974 -123.399441 138 18882ft 213kts
06-Jun-18 18:40 42.802134 -123.344020 139 18881ft 212kts
06-Jun-18 18:41 42.760486 -123.287730 139 18873ft 211kts
06-Jun-18 18:42 42.718675 -123.231619 139 18859ft 211kts
06-Jun-18 18:43 42.676767 -123.175498 139 18845ft 211kts
06-Jun-18 18:44 42.635081 -123.119799 139 18836ft 211kts
06-Jun-18 18:45 42.593105 -123.063811 139 18835ft 212kts
06-Jun-18 18:46 42.550988 -123.007751 139 18835ft 213kts
06-Jun-18 18:47 42.508410 -122.951171 139 18835ft 215kts
06-Jun-18 18:48 42.463138 -122.901414 181 18838ft 208kts
06-Jun-18 18:49 42.405123 -122.902967 181 18835ft 209kts
06-Jun-18 18:50 42.346950 -122.899999 179 18835ft 210kts
06-Jun-18 18:51 42.288632 -122.895349 179 18835ft 210kts
06-Jun-18 18:52 42.230220 -122.890238 178 18835ft 211kts
06-Jun-18 18:53 42.171813 -122.885016 178 18834ft 211kts
06-Jun-18 18:54 42.113244 -122.879753 178 18834ft 211kts
06-Jun-18 18:55 42.054613 -122.874485 178 18833ft 211kts
06-Jun-18 18:56 41.993785 -122.869053 178 18283ft 228kts
06-Jun-18 18:57 41.929642 -122.861830 177 17675ft 233kts
06-Jun-18 18:58 41.866976 -122.851468 173 17137ft 234kts
06-Jun-18 18:59 41.802923 -122.840573 181 16580ft 233kts
06-Jun-18 19:00 41.738198 -122.832096 177 16061ft 234kts
06-Jun-18 19:01 41.673500 -122.825745 178 15560ft 233kts
06-Jun-18 19:02 41.608862 -122.820068 178 15073ft 233kts
06-Jun-18 19:03 41.544272 -122.814560 178 14598ft 233kts
06-Jun-18 19:04 41.479540 -122.809062 178 14133ft 233kts
06-Jun-18 19:05 41.416526 -122.803728 177 13693ft 233kts
06-Jun-18 19:06 41.353939 -122.788694 142 13188ft 238kts
06-Jun-18 19:07 41.297130 -122.745852 158 12748ft 236kts
06-Jun-18 19:08 41.234590 -122.714470 162 11952ft 243kts
06-Jun-18 19:09 41.170467 -122.685824 163 11191ft 244kts
06-Jun-18 19:10 41.107658 -122.658714 163 10988ft 229kts
06-Jun-18 19:11 41.047995 -122.633030 163 10968ft 222kts
06-Jun-18 19:12 40.989627 -122.608008 162 10946ft 220kts
06-Jun-18 19:13 40.931630 -122.583355 163 10935ft 218kts
06-Jun-18 19:14 40.875603 -122.570577 163 10936ft 218kts
06-Jun-18 19:15 40.816913 -122.558783 184 10939ft 217kts
06-Jun-18 19:16 40.760617 -122.536981 133 10389ft 227kts
06-Jun-18 19:17 40.720580 -122.478035 132 9067ft 205kts
06-Jun-18 19:18 40.686128 -122.426696 132 7638ft 168kts
06-Jun-18 19:19 40.656717 -122.382288 132 7042ft 171kts
06-Jun-18 19:20 40.625710 -122.335705 133 7030ft 154kts
06-Jun-18 19:21 40.596563 -122.291617 133 6580ft 171kts
06-Jun-18 19:22 40.571522 -122.237363 86 5807ft 189kts
06-Jun-18 19:23 40.611123 -122.199471 348 4319ft 186kts
06-Jun-18 19:24 40.612465 -122.231380 160 2659ft 144kts
06-Jun-18 19:25 40.588308 -122.259841 231 2309ft 124kts
06-Jun-18 19:26 40.565040 -122.292887 191 1770ft 118kts
06-Jun-18 19:27 40.537048 -122.294816 177 894ft 88kts
06-Jun-18 19:28 40.514240 -122.294840 179 507ft 56kts
06-Jun-18 19:29 40.508304 -122.295883 304 507ft 0kts
06-Jun-18 19:30 40.507661 -122.298774 285 507ft 10kts

Navigation Log

Ident Type
Flight plan parsing failed, navigation log unavailable